Time;durP1;ratioP1;P1;durP2;ratioP2;P2;SDS_P1;SDS_P2;PMS_P1;PMS_P2;Temp;Humidity;BMP_temperature;BMP_pressure;BME280_temperature;BME280_humidity;BME280_pressure;Samples;Min_cycle;Max_cycle;Signal;HPM_P1;HPM_P2
2023/10/04 00:01:16;;;;;;;24.58;3.50;;;;;;;;;;5085517;28;20028;-74
2023/10/04 00:03:43;;;;;;;18.65;3.17;;;;;;;;;;5101444;28;20035;-74
2023/10/04 00:06:09;;;;;;;24.38;3.63;;;;;;;;;;5103195;28;20027;-74
2023/10/04 00:08:35;;;;;;;20.60;3.60;;;;;;;;;;5092949;28;20488;-74
2023/10/04 00:11:02;;;;;;;21.13;3.50;;;;;;;;;;5094909;28;20479;-74
2023/10/04 00:13:28;;;;;;;19.42;3.47;;;;;;;;;;5094305;28;20024;-75
2023/10/04 00:15:54;;;;;;;18.45;3.47;;;;;;;;;;5095341;28;20497;-74
2023/10/04 00:18:20;;;;;;;24.60;4.05;;;;;;;;;;5094858;28;20051;-74
2023/10/04 00:20:46;;;;;;;14.88;2.95;;;;;;;;;;5094848;28;20058;-74
2023/10/04 00:23:13;;;;;;;12.40;3.15;;;;;;;;;;5094107;28;20572;-73
2023/10/04 00:25:39;;;;;;;16.52;3.20;;;;;;;;;;5094473;28;20097;-74
2023/10/04 00:28:05;;;;;;;19.95;3.25;;;;;;;;;;5094476;28;20024;-74
2023/10/04 00:30:32;;;;;;;20.13;3.60;;;;;;;;;;5095878;28;20020;-74
2023/10/04 00:32:58;;;;;;;17.13;3.55;;;;;;;;;;5093989;28;20032;-73
2023/10/04 00:35:25;;;;;;;12.73;2.78;;;;;;;;;;5095587;28;20029;-73
2023/10/04 00:37:55;;;;;;;26.48;3.83;;;;;;;;;;5094570;28;20035;-74
2023/10/04 00:40:23;;;;;;;22.02;3.55;;;;;;;;;;5101178;28;20087;-75
2023/10/04 00:42:50;;;;;;;16.75;3.05;;;;;;;;;;5098902;28;20517;-74
2023/10/04 00:45:17;;;;;;;21.50;3.35;;;;;;;;;;5097486;28;20028;-74
2023/10/04 00:47:47;;;;;;;19.33;2.88;;;;;;;;;;5098872;28;20089;-75
2023/10/04 00:50:17;;;;;;;21.17;3.63;;;;;;;;;;5097230;28;20035;-74
2023/10/04 00:52:47;;;;;;;17.45;3.38;;;;;;;;;;5096600;28;20628;-74
2023/10/04 00:55:13;;;;;;;13.48;2.40;;;;;;;;;;5099927;28;20033;-75
2023/10/04 00:57:39;;;;;;;13.35;3.00;;;;;;;;;;5101727;28;20032;-74
2023/10/04 01:00:09;;;;;;;18.98;3.42;;;;;;;;;;5094100;28;20082;-75
2023/10/04 01:02:37;;;;;;;18.23;3.10;;;;;;;;;;5094939;28;20024;-75
2023/10/04 01:05:04;;;;;;;18.13;3.30;;;;;;;;;;5095784;28;20378;-75
2023/10/04 01:07:31;;;;;;;15.77;3.33;;;;;;;;;;5093753;28;20102;-75
2023/10/04 01:09:58;;;;;;;16.23;3.17;;;;;;;;;;5092145;28;20028;-75
2023/10/04 01:12:24;;;;;;;18.67;3.08;;;;;;;;;;5093172;28;20028;-75
2023/10/04 01:14:53;;;;;;;16.48;3.00;;;;;;;;;;5093147;28;20035;-75
2023/10/04 01:17:20;;;;;;;17.25;3.40;;;;;;;;;;5092910;28;20024;-75
2023/10/04 01:19:46;;;;;;;23.90;3.67;;;;;;;;;;5092971;28;20035;-75
2023/10/04 01:22:12;;;;;;;15.65;2.80;;;;;;;;;;5092861;28;20031;-74
2023/10/04 01:24:41;;;;;;;17.48;3.53;;;;;;;;;;5092888;28;20024;-74
2023/10/04 01:27:10;;;;;;;14.32;3.05;;;;;;;;;;5092746;28;20051;-74
2023/10/04 01:29:38;;;;;;;15.30;3.33;;;;;;;;;;5092729;28;20556;-74
2023/10/04 01:32:08;;;;;;;13.13;3.33;;;;;;;;;;5094397;28;20074;-74
2023/10/04 01:34:36;;;;;;;18.52;3.33;;;;;;;;;;5100577;28;20019;-74
2023/10/04 01:37:03;;;;;;;12.30;3.10;;;;;;;;;;5102219;28;20024;-74
2023/10/04 01:39:30;;;;;;;16.02;2.88;;;;;;;;;;5100439;28;20027;-74
2023/10/04 01:41:56;;;;;;;15.00;2.85;;;;;;;;;;5099748;28;20020;-73
2023/10/04 01:44:22;;;;;;;16.83;2.70;;;;;;;;;;5098268;28;20475;-74
2023/10/04 01:46:48;;;;;;;15.95;3.05;;;;;;;;;;5100674;28;20027;-74
2023/10/04 01:49:14;;;;;;;16.83;2.75;;;;;;;;;;5101290;28;20491;-74
2023/10/04 01:51:42;;;;;;;13.93;3.20;;;;;;;;;;5099866;28;20024;-74
2023/10/04 01:54:09;;;;;;;15.43;3.60;;;;;;;;;;5098854;28;20084;-74
2023/10/04 01:56:37;;;;;;;18.95;3.00;;;;;;;;;;5093098;28;20535;-74
2023/10/04 01:59:03;;;;;;;15.82;3.03;;;;;;;;;;5092685;28;20042;-74
2023/10/04 02:01:29;;;;;;;18.67;3.20;;;;;;;;;;5092939;28;20028;-74
2023/10/04 02:03:55;;;;;;;15.75;2.90;;;;;;;;;;5093354;28;20391;-74
2023/10/04 02:06:22;;;;;;;17.65;3.20;;;;;;;;;;5093633;28;20132;-75
2023/10/04 02:08:48;;;;;;;18.05;3.00;;;;;;;;;;5093193;28;20020;-75
2023/10/04 02:11:14;;;;;;;14.10;3.03;;;;;;;;;;5093245;28;20028;-78
2023/10/04 02:13:40;;;;;;;18.50;3.60;;;;;;;;;;5092932;28;20045;-75
2023/10/04 02:16:06;;;;;;;16.85;3.10;;;;;;;;;;5092666;28;20099;-74
2023/10/04 02:18:33;;;;;;;20.17;3.25;;;;;;;;;;5092126;28;20105;-76
2023/10/04 02:20:59;;;;;;;21.90;3.00;;;;;;;;;;5092580;28;20028;-75
2023/10/04 02:23:27;;;;;;;13.18;2.80;;;;;;;;;;5075230;28;20056;-75
2023/10/04 02:25:53;;;;;;;16.25;3.03;;;;;;;;;;5074440;28;20024;-73
2023/10/04 02:28:22;;;;;;;16.55;3.20;;;;;;;;;;5092196;28;20070;-74
2023/10/04 02:30:49;;;;;;;19.65;3.38;;;;;;;;;;5092265;28;20398;-74
2023/10/04 02:33:15;;;;;;;13.43;2.97;;;;;;;;;;5073444;28;20497;-74
2023/10/04 02:35:44;;;;;;;20.58;3.60;;;;;;;;;;5073099;28;20094;-73
2023/10/04 02:38:19;;;;;;;18.08;2.95;;;;;;;;;;5090889;28;20497;-75
2023/10/04 02:40:50;;;;;;;17.23;3.20;;;;;;;;;;5052922;28;20044;-74
2023/10/04 02:43:16;;;;;;;18.23;3.10;;;;;;;;;;5070776;28;20022;-73
2023/10/04 02:45:42;;;;;;;17.48;3.40;;;;;;;;;;5090825;28;20026;-74
2023/10/04 02:48:13;;;;;;;23.30;3.30;;;;;;;;;;5091573;28;20023;-73
2023/10/04 02:50:43;;;;;;;26.23;4.53;;;;;;;;;;5092433;28;20070;-75
2023/10/04 02:53:12;;;;;;;29.85;7.63;;;;;;;;;;5094385;28;20028;-75
2023/10/04 02:55:38;;;;;;;22.10;3.90;;;;;;;;;;5080565;28;20089;-74
2023/10/04 02:58:09;;;;;;;16.02;4.13;;;;;;;;;;5077885;28;20016;-76
2023/10/04 03:00:45;;;;;;;19.20;3.40;;;;;;;;;;5094297;28;20020;-76
2023/10/04 03:03:12;;;;;;;23.80;3.90;;;;;;;;;;5073243;28;20024;-74
2023/10/04 03:05:40;;;;;;;25.52;3.63;;;;;;;;;;5090279;28;20057;-74
2023/10/04 03:08:06;;;;;;;18.23;3.65;;;;;;;;;;5091695;28;20019;-75
2023/10/04 03:10:33;;;;;;;23.70;3.13;;;;;;;;;;5091242;28;20417;-73
2023/10/04 03:13:01;;;;;;;24.33;4.13;;;;;;;;;;5090733;28;20486;-74
2023/10/04 03:15:28;;;;;;;25.73;4.47;;;;;;;;;;5072297;28;20024;-72
2023/10/04 03:17:55;;;;;;;23.17;4.03;;;;;;;;;;5090425;28;20020;-73
2023/10/04 03:20:28;;;;;;;23.25;3.30;;;;;;;;;;5090453;28;20145;-74
2023/10/04 03:22:59;;;;;;;25.35;4.00;;;;;;;;;;5089926;28;20094;-75
2023/10/04 03:25:26;;;;;;;25.85;3.42;;;;;;;;;;5091486;28;20016;-75
2023/10/04 03:27:52;;;;;;;15.85;3.40;;;;;;;;;;5091107;28;20149;-74
2023/10/04 03:30:19;;;;;;;23.55;3.95;;;;;;;;;;5090093;28;20026;-74
2023/10/04 03:32:56;;;;;;;17.17;3.45;;;;;;;;;;5090148;28;20118;-74
2023/10/04 03:35:22;;;;;;;18.40;4.00;;;;;;;;;;5090211;28;20379;-74
2023/10/04 03:37:58;;;;;;;24.20;3.85;;;;;;;;;;5090259;28;20464;-74
2023/10/04 03:40:24;;;;;;;20.27;3.50;;;;;;;;;;5090477;28;20026;-74
2023/10/04 03:42:50;;;;;;;27.25;3.80;;;;;;;;;;5090378;28;20028;-74
2023/10/04 03:45:20;;;;;;;23.02;3.55;;;;;;;;;;5094074;28;20035;-74
2023/10/04 03:47:50;;;;;;;16.42;3.30;;;;;;;;;;5092968;28;20016;-74
2023/10/04 03:50:17;;;;;;;23.88;4.70;;;;;;;;;;5093910;28;20039;-75
2023/10/04 03:52:44;;;;;;;18.98;4.40;;;;;;;;;;5095746;28;20540;-75
2023/10/04 03:55:11;;;;;;;19.35;3.50;;;;;;;;;;5098871;28;20054;-75
2023/10/04 03:57:42;;;;;;;15.25;3.20;;;;;;;;;;5084459;28;20031;-75
2023/10/04 04:00:17;;;;;;;19.52;3.67;;;;;;;;;;5079623;28;20028;-74
2023/10/04 04:02:44;;;;;;;16.00;3.08;;;;;;;;;;5096006;28;20077;-76
2023/10/04 04:05:21;;;;;;;13.85;3.38;;;;;;;;;;5095120;28;20021;-74
2023/10/04 04:07:51;;;;;;;18.02;3.05;;;;;;;;;;5088757;28;20024;-79
2023/10/04 04:10:19;;;;;;;23.77;4.35;;;;;;;;;;5077717;28;20020;-78
2023/10/04 04:12:46;;;;;;;22.67;3.88;;;;;;;;;;5098491;28;20105;-78
2023/10/04 04:15:12;;;;;;;19.13;3.58;;;;;;;;;;5100626;28;20030;-78
2023/10/04 04:17:44;;;;;;;20.90;2.90;;;;;;;;;;5090783;28;20034;-78
2023/10/04 04:20:14;;;;;;;17.63;3.63;;;;;;;;;;5094265;28;20376;-75
2023/10/04 04:22:41;;;;;;;19.95;3.33;;;;;;;;;;5101454;28;20035;-78
2023/10/04 04:25:14;;;;;;;23.95;3.42;;;;;;;;;;5093315;28;20529;-76
2023/10/04 04:27:43;;;;;;;19.95;3.88;;;;;;;;;;5089766;28;20042;-77
2023/10/04 04:30:16;;;;;;;27.55;4.15;;;;;;;;;;5095270;28;20024;-76
2023/10/04 04:32:43;;;;;;;19.73;3.60;;;;;;;;;;5079640;28;20494;-77
2023/10/04 04:35:10;;;;;;;17.75;3.50;;;;;;;;;;5087044;28;20039;-77
2023/10/04 04:37:36;;;;;;;14.30;3.40;;;;;;;;;;5097011;28;20027;-77
2023/10/04 04:40:08;;;;;;;20.48;3.70;;;;;;;;;;5095690;28;20130;-78
2023/10/04 04:42:37;;;;;;;19.15;3.55;;;;;;;;;;5095273;28;20390;-78
2023/10/04 04:45:09;;;;;;;20.02;3.92;;;;;;;;;;5093921;28;20019;-76
2023/10/04 04:47:35;;;;;;;19.67;4.00;;;;;;;;;;5091921;28;20025;-75
2023/10/04 04:50:01;;;;;;;28.95;3.90;;;;;;;;;;5109352;28;20382;-76
2023/10/04 04:52:30;;;;;;;23.55;3.72;;;;;;;;;;5100505;28;20028;-75
2023/10/04 04:54:58;;;;;;;31.83;4.32;;;;;;;;;;5123199;28;20038;-74
2023/10/04 04:57:24;;;;;;;34.05;3.67;;;;;;;;;;5131779;28;20043;-76
2023/10/04 04:59:55;;;;;;;20.48;3.60;;;;;;;;;;5122452;28;20023;-76
2023/10/04 05:02:25;;;;;;;24.33;4.63;;;;;;;;;;5116383;28;20066;-76
2023/10/04 05:04:51;;;;;;;20.98;3.53;;;;;;;;;;5115587;28;20390;-74
2023/10/04 05:07:17;;;;;;;31.70;3.92;;;;;;;;;;5117128;28;20019;-75
2023/10/04 05:09:44;;;;;;;28.38;5.38;;;;;;;;;;5118832;28;20085;-75
2023/10/04 05:12:11;;;;;;;21.58;4.05;;;;;;;;;;5101145;28;20020;-75
2023/10/04 05:14:37;;;;;;;23.15;3.88;;;;;;;;;;5113535;28;20023;-74
2023/10/04 05:17:03;;;;;;;20.70;4.15;;;;;;;;;;5112911;28;20038;-74
2023/10/04 05:19:29;;;;;;;24.60;4.47;;;;;;;;;;5113331;28;20545;-78
2023/10/04 05:21:55;;;;;;;27.38;4.70;;;;;;;;;;5108179;28;20024;-75
2023/10/04 05:24:21;;;;;;;22.73;4.22;;;;;;;;;;5096619;28;20024;-76
2023/10/04 05:26:47;;;;;;;28.02;3.92;;;;;;;;;;5092693;28;20410;-75
2023/10/04 05:29:13;;;;;;;27.40;4.13;;;;;;;;;;5097749;28;20056;-74
2023/10/04 05:31:42;;;;;;;19.73;3.70;;;;;;;;;;5090442;28;20032;-76
2023/10/04 05:34:08;;;;;;;29.10;3.65;;;;;;;;;;5093510;28;20051;-75
2023/10/04 05:36:39;;;;;;;25.77;4.32;;;;;;;;;;5094720;28;20059;-76
2023/10/04 05:39:07;;;;;;;20.42;4.05;;;;;;;;;;5099869;28;20028;-74
2023/10/04 05:41:33;;;;;;;24.17;4.53;;;;;;;;;;5084934;28;20032;-74
2023/10/04 05:43:59;;;;;;;24.80;4.15;;;;;;;;;;5075640;28;20031;-73
2023/10/04 05:46:25;;;;;;;21.08;3.75;;;;;;;;;;5092554;28;20048;-73
2023/10/04 05:48:51;;;;;;;26.02;4.20;;;;;;;;;;5092255;28;20070;-75
2023/10/04 05:51:20;;;;;;;24.48;3.83;;;;;;;;;;5091391;28;20491;-78
2023/10/04 05:53:51;;;;;;;25.38;4.78;;;;;;;;;;5092124;28;20085;-75
2023/10/04 05:56:19;;;;;;;22.15;4.13;;;;;;;;;;5089662;28;20383;-74
2023/10/04 05:58:46;;;;;;;20.40;4.30;;;;;;;;;;5067281;28;20422;-75
2023/10/04 06:01:17;;;;;;;20.52;3.60;;;;;;;;;;5091494;28;20501;-75
2023/10/04 06:03:44;;;;;;;25.63;3.90;;;;;;;;;;5094639;28;20040;-75
2023/10/04 06:06:10;;;;;;;20.30;3.58;;;;;;;;;;5085541;28;20047;-75
2023/10/04 06:08:38;;;;;;;21.00;3.15;;;;;;;;;;5096654;28;20031;-75
2023/10/04 06:11:04;;;;;;;20.15;4.05;;;;;;;;;;5093072;28;20023;-75
2023/10/04 06:13:30;;;;;;;23.88;4.10;;;;;;;;;;5093218;28;20129;-73
2023/10/04 06:15:56;;;;;;;28.40;3.75;;;;;;;;;;5100490;28;20028;-75
2023/10/04 06:18:28;;;;;;;24.05;4.45;;;;;;;;;;5091503;28;20020;-74
2023/10/04 06:20:55;;;;;;;22.75;3.72;;;;;;;;;;5091266;28;20032;-76
2023/10/04 06:23:22;;;;;;;19.67;3.65;;;;;;;;;;5091267;28;20490;-74
2023/10/04 06:25:52;;;;;;;28.45;4.75;;;;;;;;;;5094946;28;20016;-74
2023/10/04 06:28:19;;;;;;;20.60;3.58;;;;;;;;;;5111812;28;20583;-76
2023/10/04 06:30:48;;;;;;;22.38;3.58;;;;;;;;;;5112132;28;20655;-76
2023/10/04 06:33:15;;;;;;;17.27;2.95;;;;;;;;;;5112579;28;20077;-76
2023/10/04 06:35:44;;;;;;;20.80;4.72;;;;;;;;;;5112039;28;20024;-73
2023/10/04 06:38:12;;;;;;;30.17;5.45;;;;;;;;;;5111794;28;20448;-74
2023/10/04 06:40:39;;;;;;;21.65;3.72;;;;;;;;;;5111845;28;20470;-73
2023/10/04 06:43:07;;;;;;;19.25;3.30;;;;;;;;;;5111583;28;20059;-75
2023/10/04 06:45:34;;;;;;;27.08;6.72;;;;;;;;;;5111971;28;20023;-74
2023/10/04 06:48:01;;;;;;;29.48;5.93;;;;;;;;;;5111924;28;20020;-73
2023/10/04 06:50:38;;;;;;;19.80;3.80;;;;;;;;;;5111792;28;20076;-74
2023/10/04 06:53:04;;;;;;;17.42;4.95;;;;;;;;;;5113268;28;20043;-75
2023/10/04 06:55:31;;;;;;;22.65;4.03;;;;;;;;;;5117142;28;20401;-74
2023/10/04 06:57:57;;;;;;;21.45;3.95;;;;;;;;;;5099924;28;20097;-74
2023/10/04 07:00:26;;;;;;;23.52;4.07;;;;;;;;;;5114652;28;20027;-74
2023/10/04 07:02:58;;;;;;;29.02;4.47;;;;;;;;;;5100794;28;20031;-73
2023/10/04 07:05:45;;;;;;;23.10;4.65;;;;;;;;;;5103799;28;20024;-74
2023/10/04 07:08:16;;;;;;;20.50;4.50;;;;;;;;;;5099337;28;20135;-75
2023/10/04 07:10:45;;;;;;;24.50;4.53;;;;;;;;;;5100830;28;20555;-71
2023/10/04 07:13:11;;;;;;;21.77;5.03;;;;;;;;;;5111422;28;20027;-73
2023/10/04 07:15:41;;;;;;;22.17;4.78;;;;;;;;;;5111367;28;20471;-72
2023/10/04 07:18:10;;;;;;;31.95;4.90;;;;;;;;;;5111829;28;20030;-73
2023/10/04 07:20:36;;;;;;;30.02;4.20;;;;;;;;;;5115811;28;20062;-73
2023/10/04 07:23:03;;;;;;;24.58;4.25;;;;;;;;;;5120161;28;20023;-73
2023/10/04 07:25:37;;;;;;;26.35;5.22;;;;;;;;;;5115325;28;20026;-72
2023/10/04 07:28:04;;;;;;;28.35;5.65;;;;;;;;;;5115527;28;20028;-74
2023/10/04 07:30:31;;;;;;;21.20;4.93;;;;;;;;;;5115398;28;20020;-74
2023/10/04 07:33:01;;;;;;;25.13;4.63;;;;;;;;;;5118246;28;20078;-72
2023/10/04 07:35:28;;;;;;;31.25;5.30;;;;;;;;;;5100316;28;20119;-74
2023/10/04 07:37:55;;;;;;;24.38;5.22;;;;;;;;;;5118424;28;20089;-74
2023/10/04 07:40:22;;;;;;;21.30;4.47;;;;;;;;;;5102794;28;20050;-73
2023/10/04 07:42:52;;;;;;;24.42;4.00;;;;;;;;;;5117125;28;20023;-74
2023/10/04 07:45:18;;;;;;;26.80;4.55;;;;;;;;;;5116963;28;20022;-73
2023/10/04 07:47:45;;;;;;;28.48;6.32;;;;;;;;;;5117387;28;20020;-74
2023/10/04 07:50:13;;;;;;;29.23;4.28;;;;;;;;;;5118205;28;20020;-74
2023/10/04 07:52:43;;;;;;;22.60;4.47;;;;;;;;;;5119373;28;20027;-74
2023/10/04 07:55:18;;;;;;;15.88;3.78;;;;;;;;;;5118843;28;20023;-73
2023/10/04 07:57:48;;;;;;;23.30;4.65;;;;;;;;;;5120187;28;20020;-74
2023/10/04 08:00:14;;;;;;;18.63;3.38;;;;;;;;;;5120118;28;20024;-74
2023/10/04 08:02:51;;;;;;;20.15;4.03;;;;;;;;;;5117542;28;20409;-74
2023/10/04 08:05:21;;;;;;;17.45;3.67;;;;;;;;;;5117792;28;20022;-73
2023/10/04 08:07:48;;;;;;;19.98;3.83;;;;;;;;;;5114557;28;20020;-72
2023/10/04 08:10:14;;;;;;;18.08;3.40;;;;;;;;;;5114493;28;20034;-72
2023/10/04 08:12:41;;;;;;;23.60;3.58;;;;;;;;;;5114485;28;20020;-73
2023/10/04 08:15:08;;;;;;;17.42;3.58;;;;;;;;;;5115030;28;20019;-73
2023/10/04 08:17:34;;;;;;;20.55;3.60;;;;;;;;;;5114010;28;20083;-73
2023/10/04 08:20:00;;;;;;;24.30;4.03;;;;;;;;;;5114526;28;20404;-73
2023/10/04 08:22:27;;;;;;;24.95;4.50;;;;;;;;;;5113756;28;20032;-74
2023/10/04 08:24:53;;;;;;;19.15;3.88;;;;;;;;;;5114106;28;20027;-74
2023/10/04 08:27:19;;;;;;;30.77;4.38;;;;;;;;;;5114038;28;20048;-72
2023/10/04 08:29:45;;;;;;;24.25;4.28;;;;;;;;;;5113177;28;20111;-74
2023/10/04 08:32:11;;;;;;;20.17;3.65;;;;;;;;;;5114096;28;20116;-74
2023/10/04 08:34:37;;;;;;;25.42;4.40;;;;;;;;;;5114236;28;20034;-74
2023/10/04 08:37:03;;;;;;;22.73;3.92;;;;;;;;;;5113910;28;20111;-74
2023/10/04 08:39:29;;;;;;;25.65;4.40;;;;;;;;;;5114149;28;20047;-73
2023/10/04 08:41:56;;;;;;;21.95;4.30;;;;;;;;;;5114640;28;20047;-74
2023/10/04 08:44:22;;;;;;;22.90;3.97;;;;;;;;;;5115925;28;20419;-73
2023/10/04 08:46:48;;;;;;;16.63;3.22;;;;;;;;;;5114918;28;20115;-73
2023/10/04 08:49:15;;;;;;;25.92;4.70;;;;;;;;;;5115172;28;20020;-73
2023/10/04 08:51:48;;;;;;;19.88;3.72;;;;;;;;;;5114960;28;20031;-74
2023/10/04 08:54:14;;;;;;;20.95;3.67;;;;;;;;;;5115554;28;20348;-74
2023/10/04 08:56:52;;;;;;;18.35;3.40;;;;;;;;;;5115739;28;20034;-74
2023/10/04 08:59:19;;;;;;;22.02;4.22;;;;;;;;;;5115073;28;20104;-74
2023/10/04 09:01:46;;;;;;;19.95;3.53;;;;;;;;;;5113026;28;20042;-74
2023/10/04 09:04:13;;;;;;;17.05;4.00;;;;;;;;;;5113366;28;20024;-74
2023/10/04 09:06:42;;;;;;;18.25;4.05;;;;;;;;;;5113464;28;20414;-74
2023/10/04 09:09:11;;;;;;;17.05;4.00;;;;;;;;;;5113779;28;20012;-73
2023/10/04 09:11:37;;;;;;;20.17;4.18;;;;;;;;;;5113385;28;20024;-74
2023/10/04 09:14:03;;;;;;;17.30;3.90;;;;;;;;;;5113551;28;20102;-73
2023/10/04 09:16:29;;;;;;;24.95;4.20;;;;;;;;;;5113546;28;20032;-73
2023/10/04 09:19:12;;;;;;;18.63;4.90;;;;;;;;;;5113159;28;20015;-73
2023/10/04 09:21:38;;;;;;;18.98;4.85;;;;;;;;;;5113190;28;20468;-73
2023/10/04 09:24:11;;;;;;;23.02;4.00;;;;;;;;;;5113005;28;20054;-72
2023/10/04 09:26:38;;;;;;;22.95;4.40;;;;;;;;;;5096475;28;20030;-73
2023/10/04 09:29:05;;;;;;;17.75;3.88;;;;;;;;;;5097452;28;20494;-73
2023/10/04 09:31:31;;;;;;;20.77;3.90;;;;;;;;;;5116959;28;20100;-75
2023/10/04 09:34:13;;;;;;;24.88;4.18;;;;;;;;;;5100270;28;20034;-74
2023/10/04 09:36:40;;;;;;;17.63;4.30;;;;;;;;;;5117897;28;20431;-74
2023/10/04 09:39:23;;;;;;;17.85;3.92;;;;;;;;;;5117923;28;20027;-74
2023/10/04 09:41:50;;;;;;;19.33;4.40;;;;;;;;;;5121551;28;20043;-74
2023/10/04 09:44:23;;;;;;;18.23;4.45;;;;;;;;;;5130357;28;20047;-73
2023/10/04 09:46:54;;;;;;;13.85;4.05;;;;;;;;;;5114013;28;20111;-74
2023/10/04 09:49:20;;;;;;;19.23;3.95;;;;;;;;;;5112836;28;20107;-74
2023/10/04 09:51:46;;;;;;;18.45;4.00;;;;;;;;;;5113113;28;20112;-74
2023/10/04 09:54:16;;;;;;;18.88;4.25;;;;;;;;;;5096034;28;20024;-74
2023/10/04 09:56:42;;;;;;;18.23;4.30;;;;;;;;;;5114861;28;20030;-73
2023/10/04 09:59:10;;;;;;;15.45;3.97;;;;;;;;;;5096888;28;20035;-74
2023/10/04 10:01:38;;;;;;;19.73;4.72;;;;;;;;;;5097318;28;20034;-74
2023/10/04 10:04:07;;;;;;;19.45;3.90;;;;;;;;;;5097292;28;20027;-74
2023/10/04 10:06:34;;;;;;;20.38;4.03;;;;;;;;;;5114273;28;20076;-73
2023/10/04 10:09:02;;;;;;;16.73;3.80;;;;;;;;;;5112249;28;20455;-72
2023/10/04 10:11:30;;;;;;;22.23;4.15;;;;;;;;;;5112146;28;20016;-74
2023/10/04 10:13:56;;;;;;;18.08;4.18;;;;;;;;;;5112146;28;20034;-74
2023/10/04 10:16:23;;;;;;;17.80;4.70;;;;;;;;;;5081097;28;20042;-74
2023/10/04 10:18:49;;;;;;;23.45;4.60;;;;;;;;;;5082319;28;20022;-74
2023/10/04 10:21:15;;;;;;;12.23;3.85;;;;;;;;;;5064879;28;20109;-75
2023/10/04 10:24:09;;;;;;;18.40;4.82;;;;;;;;;;5079057;28;20115;-74
2023/10/04 10:26:35;;;;;;;22.48;4.93;;;;;;;;;;5076362;28;20370;-74
2023/10/04 10:29:03;;;;;;;15.45;4.53;;;;;;;;;;5078655;28;20017;-76
2023/10/04 10:31:30;;;;;;;23.02;4.57;;;;;;;;;;5084497;28;20028;-73
2023/10/04 10:33:56;;;;;;;22.00;4.47;;;;;;;;;;5067343;28;20059;-74
2023/10/04 10:36:24;;;;;;;26.52;4.65;;;;;;;;;;5063143;28;20016;-74
2023/10/04 10:38:52;;;;;;;22.45;4.82;;;;;;;;;;5087371;28;20020;-75
2023/10/04 10:41:30;;;;;;;24.88;5.05;;;;;;;;;;5064426;28;20028;-76
2023/10/04 10:44:18;;;;;;;22.40;4.65;;;;;;;;;;5080896;28;20151;-76
2023/10/04 10:47:10;;;;;;;19.50;4.65;;;;;;;;;;5078992;28;20062;-76
2023/10/04 10:49:55;;;;;;;23.67;5.53;;;;;;;;;;5075860;28;20033;-75
2023/10/04 10:52:25;;;;;;;21.70;4.97;;;;;;;;;;5082317;28;20020;-75
2023/10/04 10:54:52;;;;;;;20.63;5.38;;;;;;;;;;5084007;28;20482;-74
2023/10/04 10:57:19;;;;;;;24.90;5.07;;;;;;;;;;5084042;28;20023;-74
2023/10/04 10:59:46;;;;;;;21.88;5.03;;;;;;;;;;5072718;28;20074;-76
2023/10/04 11:02:12;;;;;;;23.85;4.68;;;;;;;;;;5089948;28;20019;-74
2023/10/04 11:04:38;;;;;;;29.80;5.55;;;;;;;;;;5085232;28;20032;-72
2023/10/04 11:07:11;;;;;;;22.75;5.05;;;;;;;;;;5066509;28;20051;-74
2023/10/04 11:09:42;;;;;;;23.40;4.78;;;;;;;;;;5075232;28;20096;-74
2023/10/04 11:12:08;;;;;;;23.02;5.28;;;;;;;;;;5075488;28;20103;-74
2023/10/04 11:14:36;;;;;;;22.15;5.22;;;;;;;;;;5076285;28;20048;-73
2023/10/04 11:17:06;;;;;;;25.65;5.05;;;;;;;;;;5061609;28;20036;-74
2023/10/04 11:19:34;;;;;;;20.50;5.93;;;;;;;;;;5077006;28;20038;-74
2023/10/04 11:22:00;;;;;;;19.52;5.75;;;;;;;;;;5077592;28;20051;-74
2023/10/04 11:24:27;;;;;;;22.25;5.32;;;;;;;;;;5096402;28;20471;-75
2023/10/04 11:26:59;;;;;;;19.10;5.80;;;;;;;;;;5096782;28;20059;-74
2023/10/04 11:29:29;;;;;;;22.90;5.50;;;;;;;;;;5095935;28;20062;-75
2023/10/04 11:31:56;;;;;;;17.20;4.85;;;;;;;;;;5096012;28;20032;-73
2023/10/04 11:34:22;;;;;;;21.85;5.80;;;;;;;;;;5094972;28;20421;-74
2023/10/04 11:36:48;;;;;;;20.48;5.88;;;;;;;;;;5094543;28;20024;-74
2023/10/04 11:39:18;;;;;;;24.80;5.68;;;;;;;;;;5094870;28;20027;-74
2023/10/04 11:41:50;;;;;;;27.95;6.65;;;;;;;;;;5095025;28;20149;-75
2023/10/04 11:44:18;;;;;;;19.80;4.80;;;;;;;;;;5094827;28;20116;-76
2023/10/04 11:46:53;;;;;;;19.67;5.78;;;;;;;;;;5094237;28;20113;-74
2023/10/04 11:49:19;;;;;;;28.13;6.00;;;;;;;;;;5094587;28;20436;-73
2023/10/04 11:51:45;;;;;;;22.27;5.45;;;;;;;;;;5096447;28;20387;-73
2023/10/04 11:54:11;;;;;;;26.67;6.55;;;;;;;;;;5082820;28;20475;-76
2023/10/04 11:56:42;;;;;;;23.27;5.93;;;;;;;;;;5098560;28;20032;-73
2023/10/04 11:59:08;;;;;;;19.77;5.47;;;;;;;;;;5099824;28;20020;-74
2023/10/04 12:01:47;;;;;;;20.67;5.88;;;;;;;;;;5104317;28;20028;-75
2023/10/04 12:04:14;;;;;;;21.65;6.10;;;;;;;;;;5096205;28;20020;-74
2023/10/04 12:06:41;;;;;;;23.38;6.28;;;;;;;;;;5093926;28;20028;-75
2023/10/04 12:09:08;;;;;;;25.38;6.60;;;;;;;;;;5094707;28;20016;-74
2023/10/04 12:11:35;;;;;;;23.80;6.80;;;;;;;;;;5094758;28;20057;-74
2023/10/04 12:14:03;;;;;;;23.27;7.00;;;;;;;;;;5094453;28;20545;-73
2023/10/04 12:16:29;;;;;;;24.38;6.72;;;;;;;;;;5094439;28;20109;-74
2023/10/04 12:18:55;;;;;;;23.88;6.53;;;;;;;;;;5093893;28;20028;-73
2023/10/04 12:21:21;;;;;;;21.58;6.40;;;;;;;;;;5094001;28;20099;-72
2023/10/04 12:23:48;;;;;;;25.35;6.80;;;;;;;;;;5095043;28;20043;-74
2023/10/04 12:26:16;;;;;;;25.90;6.40;;;;;;;;;;5096172;28;20095;-74
2023/10/04 12:28:43;;;;;;;18.27;6.00;;;;;;;;;;5093701;28;20409;-74
2023/10/04 12:31:09;;;;;;;21.38;6.00;;;;;;;;;;5093627;28;20030;-75
2023/10/04 12:33:36;;;;;;;23.08;6.82;;;;;;;;;;5093866;28;20032;-75
2023/10/04 12:36:03;;;;;;;21.75;6.95;;;;;;;;;;5094484;28;20040;-75
2023/10/04 12:38:30;;;;;;;21.77;7.82;;;;;;;;;;5093660;28;20054;-75
2023/10/04 12:40:57;;;;;;;23.30;7.25;;;;;;;;;;5096077;28;20027;-75
2023/10/04 12:43:24;;;;;;;23.95;8.50;;;;;;;;;;5099733;28;20087;-76
2023/10/04 12:45:53;;;;;;;24.65;8.00;;;;;;;;;;5090249;28;20016;-74
2023/10/04 12:48:19;;;;;;;26.90;8.23;;;;;;;;;;5091677;28;20012;-74
2023/10/04 12:50:46;;;;;;;21.77;7.28;;;;;;;;;;5098067;28;20025;-73
2023/10/04 12:53:12;;;;;;;21.52;6.63;;;;;;;;;;5074082;28;20119;-75
2023/10/04 12:55:39;;;;;;;23.33;8.02;;;;;;;;;;5098633;28;20471;-74
2023/10/04 12:58:06;;;;;;;19.10;6.57;;;;;;;;;;5096795;28;20031;-76
2023/10/04 13:00:33;;;;;;;23.40;6.70;;;;;;;;;;5102189;28;20066;-74
2023/10/04 13:03:00;;;;;;;23.02;6.65;;;;;;;;;;5095198;28;20028;-75
2023/10/04 13:05:27;;;;;;;23.48;7.05;;;;;;;;;;5101980;28;20103;-75
2023/10/04 13:07:53;;;;;;;18.52;6.50;;;;;;;;;;5099985;28;20103;-75
2023/10/04 13:10:20;;;;;;;19.75;6.28;;;;;;;;;;5090903;28;20548;-74
2023/10/04 13:12:46;;;;;;;23.48;6.65;;;;;;;;;;5090662;28;20394;-74
2023/10/04 13:15:12;;;;;;;18.85;6.07;;;;;;;;;;5095156;28;20028;-74
2023/10/04 13:17:39;;;;;;;23.25;7.03;;;;;;;;;;5099964;28;20027;-74
2023/10/04 13:20:17;;;;;;;24.70;6.32;;;;;;;;;;5093136;28;20032;-74
2023/10/04 13:22:43;;;;;;;19.98;6.07;;;;;;;;;;5078148;28;20089;-74
2023/10/04 13:25:09;;;;;;;20.27;5.93;;;;;;;;;;5097419;28;20024;-75
2023/10/04 13:27:36;;;;;;;21.30;6.60;;;;;;;;;;5079373;28;20529;-74
2023/10/04 13:30:04;;;;;;;28.60;7.72;;;;;;;;;;5099889;28;20475;-74
2023/10/04 13:32:31;;;;;;;22.42;7.05;;;;;;;;;;5102377;28;20043;-74
2023/10/04 13:34:59;;;;;;;23.13;6.13;;;;;;;;;;5107713;28;20016;-73
2023/10/04 13:37:25;;;;;;;20.63;6.55;;;;;;;;;;5081729;28;20020;-75
2023/10/04 13:39:51;;;;;;;21.52;6.32;;;;;;;;;;5102072;28;20022;-75
2023/10/04 13:42:17;;;;;;;18.95;5.53;;;;;;;;;;5086595;28;20047;-75
2023/10/04 13:44:43;;;;;;;23.00;5.97;;;;;;;;;;5103966;28;20035;-76
2023/10/04 13:47:11;;;;;;;21.30;6.20;;;;;;;;;;5099747;28;20028;-77
2023/10/04 13:49:38;;;;;;;21.58;5.75;;;;;;;;;;5083626;28;20043;-76
2023/10/04 13:52:04;;;;;;;20.17;6.65;;;;;;;;;;5102986;28;20024;-75
2023/10/04 13:54:31;;;;;;;20.58;5.47;;;;;;;;;;5105424;28;20020;-75
2023/10/04 13:56:59;;;;;;;18.88;6.72;;;;;;;;;;5091695;28;20350;-74
2023/10/04 13:59:25;;;;;;;16.30;5.65;;;;;;;;;;5100929;28;20050;-75
2023/10/04 14:01:51;;;;;;;24.38;6.20;;;;;;;;;;5104433;28;20042;-75
2023/10/04 14:04:18;;;;;;;25.65;6.72;;;;;;;;;;5114521;28;20428;-77
2023/10/04 14:06:44;;;;;;;27.63;6.38;;;;;;;;;;5115273;28;20031;-77
2023/10/04 14:09:18;;;;;;;21.92;6.07;;;;;;;;;;5120586;28;20042;-73
2023/10/04 14:11:44;;;;;;;22.40;6.05;;;;;;;;;;5100828;28;20031;-79
2023/10/04 14:14:10;;;;;;;22.30;6.07;;;;;;;;;;5117686;28;20024;-73
2023/10/04 14:16:37;;;;;;;25.23;6.65;;;;;;;;;;5095982;28;20521;-72
2023/10/04 14:19:04;;;;;;;20.15;6.28;;;;;;;;;;5097225;28;20027;-74
2023/10/04 14:21:30;;;;;;;23.85;7.00;;;;;;;;;;5097481;28;20024;-74
2023/10/04 14:23:56;;;;;;;24.17;5.72;;;;;;;;;;5074480;28;20056;-73
2023/10/04 14:26:22;;;;;;;17.05;5.38;;;;;;;;;;5092214;28;20020;-73
2023/10/04 14:28:48;;;;;;;24.17;5.72;;;;;;;;;;5089724;28;20368;-73
2023/10/04 14:31:14;;;;;;;25.13;6.38;;;;;;;;;;5091364;28;20027;-73
2023/10/04 14:33:41;;;;;;;17.75;5.05;;;;;;;;;;5093119;28;20028;-74
2023/10/04 14:36:07;;;;;;;20.33;6.90;;;;;;;;;;5091951;28;20076;-72